sensor_id;sensor_type;location;lat;lon;timestamp;pressure;altitude;pressure_sealevel;temperature;humidity
51083;BME280;37131;42.694;23.350;2022-08-21T00:01:14;94920.53;;;17.85;100.00
51083;BME280;37131;42.694;23.350;2022-08-21T00:03:41;94920.06;;;17.78;100.00
51083;BME280;37131;42.694;23.350;2022-08-21T00:06:07;94917.84;;;17.96;100.00
51083;BME280;37131;42.694;23.350;2022-08-21T00:08:32;94913.31;;;18.01;100.00
51083;BME280;37131;42.694;23.350;2022-08-21T00:10:58;94909.38;;;17.99;100.00
51083;BME280;37131;42.694;23.350;2022-08-21T00:13:24;94904.59;;;18.01;100.00
51083;BME280;37131;42.694;23.350;2022-08-21T00:15:49;94830.25;;;17.40;100.00
51083;BME280;37131;42.694;23.350;2022-08-21T00:18:15;94904.22;;;18.13;100.00
51083;BME280;37131;42.694;23.350;2022-08-21T00:20:43;94908.94;;;18.16;100.00
51083;BME280;37131;42.694;23.350;2022-08-21T00:23:08;94906.56;;;18.14;100.00
51083;BME280;37131;42.694;23.350;2022-08-21T00:25:34;94890.53;;;18.11;100.00
51083;BME280;37131;42.694;23.350;2022-08-21T00:28:00;94899.09;;;18.21;100.00
51083;BME280;37131;42.694;23.350;2022-08-21T00:30:27;94898.66;;;18.14;100.00
51083;BME280;37131;42.694;23.350;2022-08-21T00:32:55;94889.97;;;18.14;100.00
51083;BME280;37131;42.694;23.350;2022-08-21T00:35:25;94890.53;;;18.11;100.00
51083;BME280;37131;42.694;23.350;2022-08-21T00:37:50;94874.13;;;17.90;100.00
51083;BME280;37131;42.694;23.350;2022-08-21T00:40:19;94893.72;;;18.08;100.00
51083;BME280;37131;42.694;23.350;2022-08-21T00:42:45;94895.91;;;18.00;100.00
51083;BME280;37131;42.694;23.350;2022-08-21T00:45:11;94895.97;;;17.95;100.00
51083;BME280;37131;42.694;23.350;2022-08-21T00:47:37;94896.91;;;18.04;100.00
51083;BME280;37131;42.694;23.350;2022-08-21T00:50:04;94902.50;;;17.98;100.00
51083;BME280;37131;42.694;23.350;2022-08-21T00:52:32;94895.41;;;17.98;100.00
51083;BME280;37131;42.694;23.350;2022-08-21T00:54:59;94902.31;;;17.89;100.00
51083;BME280;37131;42.694;23.350;2022-08-21T00:57:35;94899.59;;;17.99;100.00
51083;BME280;37131;42.694;23.350;2022-08-21T01:00:05;94899.19;;;18.16;100.00
51083;BME280;37131;42.694;23.350;2022-08-21T01:02:31;94893.16;;;18.11;100.00
51083;BME280;37131;42.694;23.350;2022-08-21T01:04:57;94892.66;;;18.09;100.00
51083;BME280;37131;42.694;23.350;2022-08-21T01:07:22;94888.00;;;18.00;100.00
51083;BME280;37131;42.694;23.350;2022-08-21T01:09:48;94884.47;;;18.10;100.00
51083;BME280;37131;42.694;23.350;2022-08-21T01:12:14;94883.00;;;17.99;100.00
51083;BME280;37131;42.694;23.350;2022-08-21T01:14:40;94883.78;;;17.99;100.00
51083;BME280;37131;42.694;23.350;2022-08-21T01:17:08;94842.22;;;17.86;100.00
51083;BME280;37131;42.694;23.350;2022-08-21T01:19:33;94874.69;;;18.11;100.00
51083;BME280;37131;42.694;23.350;2022-08-21T01:21:59;94875.00;;;18.04;100.00
51083;BME280;37131;42.694;23.350;2022-08-21T01:24:25;94834.94;;;17.78;100.00
51083;BME280;37131;42.694;23.350;2022-08-21T01:26:51;94869.69;;;18.09;100.00
51083;BME280;37131;42.694;23.350;2022-08-21T01:32:06;94871.59;;;18.03;100.00
51083;BME280;37131;42.694;23.350;2022-08-21T01:34:34;94867.28;;;18.13;100.00
51083;BME280;37131;42.694;23.350;2022-08-21T01:37:00;94870.03;;;18.02;100.00
51083;BME280;37131;42.694;23.350;2022-08-21T01:39:26;94865.56;;;18.03;100.00
51083;BME280;37131;42.694;23.350;2022-08-21T01:41:51;94880.75;;;18.11;100.00
51083;BME280;37131;42.694;23.350;2022-08-21T01:44:21;94885.25;;;18.11;100.00
51083;BME280;37131;42.694;23.350;2022-08-21T01:46:46;94885.34;;;18.24;100.00
51083;BME280;37131;42.694;23.350;2022-08-21T01:49:12;94872.44;;;18.23;100.00
51083;BME280;37131;42.694;23.350;2022-08-21T01:51:37;94885.47;;;18.38;100.00
51083;BME280;37131;42.694;23.350;2022-08-21T01:54:02;94876.88;;;18.28;100.00
51083;BME280;37131;42.694;23.350;2022-08-21T01:56:28;94887.09;;;18.34;100.00
51083;BME280;37131;42.694;23.350;2022-08-21T01:58:53;94883.72;;;18.53;100.00
51083;BME280;37131;42.694;23.350;2022-08-21T02:01:19;94831.72;;;18.10;100.00
51083;BME280;37131;42.694;23.350;2022-08-21T02:03:44;94874.22;;;18.52;100.00
51083;BME280;37131;42.694;23.350;2022-08-21T02:06:15;94882.44;;;18.50;100.00
51083;BME280;37131;42.694;23.350;2022-08-21T02:08:42;94887.78;;;18.21;100.00
51083;BME280;37131;42.694;23.350;2022-08-21T02:11:08;94896.53;;;18.16;100.00
51083;BME280;37131;42.694;23.350;2022-08-21T02:13:33;94852.19;;;17.94;100.00
51083;BME280;37131;42.694;23.350;2022-08-21T02:15:59;94882.50;;;18.21;100.00
51083;BME280;37131;42.694;23.350;2022-08-21T02:18:24;94900.28;;;18.34;100.00
51083;BME280;37131;42.694;23.350;2022-08-21T02:20:50;94900.00;;;18.36;100.00
51083;BME280;37131;42.694;23.350;2022-08-21T02:23:16;94896.91;;;18.29;100.00
51083;BME280;37131;42.694;23.350;2022-08-21T02:25:41;94896.91;;;18.29;100.00
51083;BME280;37131;42.694;23.350;2022-08-21T02:28:12;94873.81;;;18.20;100.00
51083;BME280;37131;42.694;23.350;2022-08-21T02:30:42;94899.56;;;18.29;100.00
51083;BME280;37131;42.694;23.350;2022-08-21T02:33:08;94900.75;;;18.17;100.00
51083;BME280;37131;42.694;23.350;2022-08-21T02:35:35;94907.09;;;18.16;100.00
51083;BME280;37131;42.694;23.350;2022-08-21T02:38:06;94908.59;;;18.22;100.00
51083;BME280;37131;42.694;23.350;2022-08-21T02:40:35;94904.72;;;18.15;100.00
51083;BME280;37131;42.694;23.350;2022-08-21T02:43:02;94898.72;;;18.09;100.00
51083;BME280;37131;42.694;23.350;2022-08-21T02:45:28;94896.56;;;18.11;100.00
51083;BME280;37131;42.694;23.350;2022-08-21T02:47:56;94894.22;;;18.10;100.00
51083;BME280;37131;42.694;23.350;2022-08-21T02:50:26;94900.56;;;18.09;100.00
51083;BME280;37131;42.694;23.350;2022-08-21T02:52:52;94890.06;;;18.03;100.00
51083;BME280;37131;42.694;23.350;2022-08-21T02:55:22;94903.94;;;18.14;100.00
51083;BME280;37131;42.694;23.350;2022-08-21T02:57:48;94890.63;;;18.24;100.00
51083;BME280;37131;42.694;23.350;2022-08-21T03:00:15;94888.22;;;18.28;100.00
51083;BME280;37131;42.694;23.350;2022-08-21T03:02:41;94864.88;;;18.16;100.00
51083;BME280;37131;42.694;23.350;2022-08-21T03:05:09;94901.97;;;18.25;100.00
51083;BME280;37131;42.694;23.350;2022-08-21T03:07:35;94910.44;;;17.98;100.00
51083;BME280;37131;42.694;23.350;2022-08-21T03:10:01;94898.88;;;17.88;100.00
51083;BME280;37131;42.694;23.350;2022-08-21T03:12:27;94908.53;;;18.03;100.00
51083;BME280;37131;42.694;23.350;2022-08-21T03:14:52;94906.03;;;18.17;100.00
51083;BME280;37131;42.694;23.350;2022-08-21T03:17:17;94902.03;;;18.20;100.00
51083;BME280;37131;42.694;23.350;2022-08-21T03:19:43;94862.16;;;17.68;100.00
51083;BME280;37131;42.694;23.350;2022-08-21T03:22:08;94902.13;;;17.80;100.00
51083;BME280;37131;42.694;23.350;2022-08-21T03:24:34;94901.53;;;17.59;100.00
51083;BME280;37131;42.694;23.350;2022-08-21T03:26:59;94884.19;;;17.53;100.00
51083;BME280;37131;42.694;23.350;2022-08-21T03:29:25;94906.47;;;17.66;100.00
51083;BME280;37131;42.694;23.350;2022-08-21T03:31:50;94921.56;;;17.60;100.00
51083;BME280;37131;42.694;23.350;2022-08-21T03:34:18;94909.63;;;17.68;100.00
51083;BME280;37131;42.694;23.350;2022-08-21T03:36:44;94867.41;;;17.39;100.00
51083;BME280;37131;42.694;23.350;2022-08-21T03:39:09;94866.41;;;17.34;100.00
51083;BME280;37131;42.694;23.350;2022-08-21T03:41:34;94904.69;;;17.61;100.00
51083;BME280;37131;42.694;23.350;2022-08-21T03:44:00;94868.44;;;17.43;100.00
51083;BME280;37131;42.694;23.350;2022-08-21T03:46:25;94892.66;;;17.45;100.00
51083;BME280;37131;42.694;23.350;2022-08-21T03:48:51;94901.94;;;17.37;100.00
51083;BME280;37131;42.694;23.350;2022-08-21T03:51:18;94902.66;;;17.48;100.00
51083;BME280;37131;42.694;23.350;2022-08-21T03:53:43;94905.84;;;17.45;100.00
51083;BME280;37131;42.694;23.350;2022-08-21T03:56:10;94910.75;;;17.22;100.00
51083;BME280;37131;42.694;23.350;2022-08-21T03:58:36;94886.19;;;16.92;100.00
51083;BME280;37131;42.694;23.350;2022-08-21T04:01:04;94918.78;;;17.41;100.00
51083;BME280;37131;42.694;23.350;2022-08-21T04:03:33;94926.78;;;17.26;100.00
51083;BME280;37131;42.694;23.350;2022-08-21T04:05:59;94921.97;;;17.38;100.00
51083;BME280;37131;42.694;23.350;2022-08-21T04:08:25;94924.78;;;17.52;100.00
51083;BME280;37131;42.694;23.350;2022-08-21T04:10:52;94913.59;;;17.65;100.00
51083;BME280;37131;42.694;23.350;2022-08-21T04:13:19;94921.03;;;17.58;100.00
51083;BME280;37131;42.694;23.350;2022-08-21T04:15:45;94920.84;;;17.49;100.00
51083;BME280;37131;42.694;23.350;2022-08-21T04:18:11;94924.75;;;17.57;100.00
51083;BME280;37131;42.694;23.350;2022-08-21T04:20:37;94916.63;;;17.48;100.00
51083;BME280;37131;42.694;23.350;2022-08-21T04:23:02;94914.84;;;17.44;100.00
51083;BME280;37131;42.694;23.350;2022-08-21T04:25:28;94860.63;;;17.32;100.00
51083;BME280;37131;42.694;23.350;2022-08-21T04:27:54;94900.41;;;17.65;100.00
51083;BME280;37131;42.694;23.350;2022-08-21T04:30:20;94905.22;;;17.58;100.00
51083;BME280;37131;42.694;23.350;2022-08-21T04:32:47;94918.59;;;17.67;100.00
51083;BME280;37131;42.694;23.350;2022-08-21T04:35:15;94911.97;;;17.69;100.00
51083;BME280;37131;42.694;23.350;2022-08-21T04:37:41;94920.84;;;17.79;100.00
51083;BME280;37131;42.694;23.350;2022-08-21T04:40:07;94916.09;;;17.81;100.00
51083;BME280;37131;42.694;23.350;2022-08-21T04:42:41;94911.06;;;17.90;100.00
51083;BME280;37131;42.694;23.350;2022-08-21T04:45:07;94914.38;;;18.00;100.00
51083;BME280;37131;42.694;23.350;2022-08-21T04:47:33;94915.94;;;18.01;100.00
51083;BME280;37131;42.694;23.350;2022-08-21T04:49:58;94928.69;;;17.89;100.00
51083;BME280;37131;42.694;23.350;2022-08-21T04:52:24;94914.78;;;17.83;100.00
51083;BME280;37131;42.694;23.350;2022-08-21T04:54:50;94877.94;;;17.73;100.00
51083;BME280;37131;42.694;23.350;2022-08-21T04:57:17;94915.28;;;18.15;100.00
51083;BME280;37131;42.694;23.350;2022-08-21T04:59:47;94912.06;;;17.88;100.00
51083;BME280;37131;42.694;23.350;2022-08-21T05:02:13;94912.84;;;17.94;100.00
51083;BME280;37131;42.694;23.350;2022-08-21T05:04:49;94912.16;;;17.78;100.00
51083;BME280;37131;42.694;23.350;2022-08-21T05:07:17;94901.72;;;17.68;100.00
51083;BME280;37131;42.694;23.350;2022-08-21T05:09:43;94911.41;;;17.73;100.00
51083;BME280;37131;42.694;23.350;2022-08-21T05:12:09;94917.50;;;17.73;100.00
51083;BME280;37131;42.694;23.350;2022-08-21T05:14:35;94916.63;;;17.48;100.00
51083;BME280;37131;42.694;23.350;2022-08-21T05:17:01;94891.63;;;17.46;100.00
51083;BME280;37131;42.694;23.350;2022-08-21T05:19:27;94917.50;;;17.73;100.00
51083;BME280;37131;42.694;23.350;2022-08-21T05:21:52;94917.59;;;17.92;100.00
51083;BME280;37131;42.694;23.350;2022-08-21T05:24:18;94911.03;;;18.19;100.00
51083;BME280;37131;42.694;23.350;2022-08-21T05:26:44;94918.69;;;18.15;100.00
51083;BME280;37131;42.694;23.350;2022-08-21T05:29:10;94910.78;;;17.91;100.00
51083;BME280;37131;42.694;23.350;2022-08-21T05:31:36;94910.44;;;17.98;100.00
51083;BME280;37131;42.694;23.350;2022-08-21T05:34:01;94900.28;;;17.81;100.00
51083;BME280;37131;42.694;23.350;2022-08-21T05:36:27;94910.94;;;17.70;100.00
51083;BME280;37131;42.694;23.350;2022-08-21T05:38:52;94914.41;;;17.66;100.00
51083;BME280;37131;42.694;23.350;2022-08-21T05:41:18;94915.56;;;17.84;100.00
51083;BME280;37131;42.694;23.350;2022-08-21T05:43:43;94906.91;;;18.32;100.00
51083;BME280;37131;42.694;23.350;2022-08-21T05:46:09;94895.13;;;18.67;100.00
51083;BME280;37131;42.694;23.350;2022-08-21T05:48:35;94906.22;;;18.45;100.00
51083;BME280;37131;42.694;23.350;2022-08-21T05:51:09;94900.72;;;18.66;100.00
51083;BME280;37131;42.694;23.350;2022-08-21T05:53:36;94880.25;;;18.33;100.00
51083;BME280;37131;42.694;23.350;2022-08-21T05:56:02;94892.78;;;18.66;100.00
51083;BME280;37131;42.694;23.350;2022-08-21T05:58:30;94898.47;;;18.54;100.00
51083;BME280;37131;42.694;23.350;2022-08-21T06:00:55;94902.38;;;18.62;100.00
51083;BME280;37131;42.694;23.350;2022-08-21T06:03:24;94885.09;;;18.69;100.00
51083;BME280;37131;42.694;23.350;2022-08-21T06:05:49;94903.56;;;18.93;100.00
51083;BME280;37131;42.694;23.350;2022-08-21T06:08:16;94895.91;;;18.92;100.00
51083;BME280;37131;42.694;23.350;2022-08-21T06:10:42;94901.06;;;19.21;100.00
51083;BME280;37131;42.694;23.350;2022-08-21T06:13:08;94908.41;;;19.05;100.00
51083;BME280;37131;42.694;23.350;2022-08-21T06:15:34;94902.06;;;19.25;100.00
51083;BME280;37131;42.694;23.350;2022-08-21T06:17:59;94901.25;;;19.25;100.00
51083;BME280;37131;42.694;23.350;2022-08-21T06:20:25;94899.56;;;19.15;100.00
51083;BME280;37131;42.694;23.350;2022-08-21T06:22:51;94903.25;;;19.33;100.00
51083;BME280;37131;42.694;23.350;2022-08-21T06:25:17;94904.41;;;19.27;100.00
51083;BME280;37131;42.694;23.350;2022-08-21T06:27:42;94891.94;;;19.46;100.00
51083;BME280;37131;42.694;23.350;2022-08-21T06:30:08;94899.19;;;19.22;100.00
51083;BME280;37131;42.694;23.350;2022-08-21T06:32:34;94905.28;;;19.22;100.00
51083;BME280;37131;42.694;23.350;2022-08-21T06:35:00;94880.78;;;19.17;100.00
51083;BME280;37131;42.694;23.350;2022-08-21T06:37:25;94906.19;;;19.32;100.00
51083;BME280;37131;42.694;23.350;2022-08-21T06:39:51;94895.16;;;19.43;100.00
51083;BME280;37131;42.694;23.350;2022-08-21T06:42:17;94902.34;;;19.24;100.00
51083;BME280;37131;42.694;23.350;2022-08-21T06:44:43;94905.72;;;19.62;100.00
51083;BME280;37131;42.694;23.350;2022-08-21T06:47:08;94896.53;;;19.74;100.00
51083;BME280;37131;42.694;23.350;2022-08-21T06:49:34;94898.25;;;19.84;100.00
51083;BME280;37131;42.694;23.350;2022-08-21T06:52:00;94906.22;;;20.11;95.86
51083;BME280;37131;42.694;23.350;2022-08-21T06:54:25;94898.59;;;20.10;96.27
51083;BME280;37131;42.694;23.350;2022-08-21T06:56:50;94894.44;;;19.90;97.17
51083;BME280;37131;42.694;23.350;2022-08-21T06:59:16;94895.81;;;20.01;96.91
51083;BME280;37131;42.694;23.350;2022-08-21T07:01:41;94903.19;;;20.04;93.70
51083;BME280;37131;42.694;23.350;2022-08-21T07:04:07;94909.09;;;20.29;93.24
51083;BME280;37131;42.694;23.350;2022-08-21T07:06:32;94913.97;;;20.22;92.45
51083;BME280;37131;42.694;23.350;2022-08-21T07:08:58;94914.47;;;20.51;90.81
51083;BME280;37131;42.694;23.350;2022-08-21T07:11:24;94911.81;;;20.51;88.15
51083;BME280;37131;42.694;23.350;2022-08-21T07:13:51;94902.22;;;20.56;87.17
51083;BME280;37131;42.694;23.350;2022-08-21T07:16:18;94897.44;;;20.30;92.26
51083;BME280;37131;42.694;23.350;2022-08-21T07:18:44;94916.91;;;20.20;89.65
51083;BME280;37131;42.694;23.350;2022-08-21T07:21:10;94907.81;;;20.12;89.80
51083;BME280;37131;42.694;23.350;2022-08-21T07:23:40;94903.09;;;20.23;93.14
51083;BME280;37131;42.694;23.350;2022-08-21T07:26:06;94893.09;;;20.48;91.94
51083;BME280;37131;42.694;23.350;2022-08-21T07:28:32;94895.63;;;20.25;90.65
51083;BME280;37131;42.694;23.350;2022-08-21T07:30:59;94898.59;;;20.51;87.82
51083;BME280;37131;42.694;23.350;2022-08-21T07:33:26;94896.16;;;20.69;85.01
51083;BME280;37131;42.694;23.350;2022-08-21T07:35:52;94888.97;;;20.83;83.87
51083;BME280;37131;42.694;23.350;2022-08-21T07:38:17;94890.22;;;21.23;82.56
51083;BME280;37131;42.694;23.350;2022-08-21T07:40:45;94891.19;;;21.27;78.45
51083;BME280;37131;42.694;23.350;2022-08-21T07:43:10;94886.94;;;21.40;79.33
51083;BME280;37131;42.694;23.350;2022-08-21T07:45:37;94883.41;;;21.30;81.41
51083;BME280;37131;42.694;23.350;2022-08-21T07:48:03;94876.75;;;21.55;81.20
51083;BME280;37131;42.694;23.350;2022-08-21T07:50:29;94876.03;;;21.64;81.12
51083;BME280;37131;42.694;23.350;2022-08-21T07:52:54;94874.81;;;21.47;79.09
51083;BME280;37131;42.694;23.350;2022-08-21T07:55:21;94877.91;;;21.63;81.11
51083;BME280;37131;42.694;23.350;2022-08-21T07:57:47;94868.97;;;21.59;83.46
51083;BME280;37131;42.694;23.350;2022-08-21T08:00:17;94884.94;;;21.68;80.24
51083;BME280;37131;42.694;23.350;2022-08-21T08:02:48;94845.22;;;21.31;79.13
51083;BME280;37131;42.694;23.350;2022-08-21T08:05:20;94880.34;;;21.82;79.91
51083;BME280;37131;42.694;23.350;2022-08-21T08:07:46;94882.13;;;21.96;78.74
51083;BME280;37131;42.694;23.350;2022-08-21T08:10:13;94879.47;;;21.96;78.54
51083;BME280;37131;42.694;23.350;2022-08-21T08:12:41;94884.53;;;22.06;77.03
51083;BME280;37131;42.694;23.350;2022-08-21T08:15:09;94861.53;;;21.70;76.96
51083;BME280;37131;42.694;23.350;2022-08-21T08:17:36;94880.09;;;21.47;82.95
51083;BME280;37131;42.694;23.350;2022-08-21T08:20:03;94880.84;;;21.62;81.60
51083;BME280;37131;42.694;23.350;2022-08-21T08:22:29;94868.38;;;21.94;81.39
51083;BME280;37131;42.694;23.350;2022-08-21T08:24:55;94877.34;;;22.06;79.34
51083;BME280;37131;42.694;23.350;2022-08-21T08:27:21;94875.13;;;22.08;77.15
51083;BME280;37131;42.694;23.350;2022-08-21T08:29:46;94882.06;;;22.18;77.73
51083;BME280;37131;42.694;23.350;2022-08-21T08:32:12;94880.97;;;22.19;76.43
51083;BME280;37131;42.694;23.350;2022-08-21T08:34:39;94871.47;;;22.27;74.08
51083;BME280;37131;42.694;23.350;2022-08-21T08:37:06;94881.38;;;22.35;76.23
51083;BME280;37131;42.694;23.350;2022-08-21T08:39:33;94881.53;;;22.39;77.59
51083;BME280;37131;42.694;23.350;2022-08-21T08:42:23;94884.72;;;22.18;77.68
51083;BME280;37131;42.694;23.350;2022-08-21T08:44:57;94881.19;;;22.32;77.26
51083;BME280;37131;42.694;23.350;2022-08-21T08:47:24;94881.41;;;22.44;75.68
51083;BME280;37131;42.694;23.350;2022-08-21T08:50:18;94886.75;;;22.62;74.17
51083;BME280;37131;42.694;23.350;2022-08-21T08:52:51;94891.00;;;22.71;74.91
51083;BME280;37131;42.694;23.350;2022-08-21T08:55:27;94881.28;;;22.18;77.42
51083;BME280;37131;42.694;23.350;2022-08-21T08:57:54;94878.19;;;22.24;77.46
51083;BME280;37131;42.694;23.350;2022-08-21T09:00:21;94867.06;;;22.14;77.92
51083;BME280;37131;42.694;23.350;2022-08-21T09:02:53;94874.28;;;22.31;74.23
51083;BME280;37131;42.694;23.350;2022-08-21T09:05:37;94873.91;;;22.46;73.28
51083;BME280;37131;42.694;23.350;2022-08-21T09:11:02;94860.06;;;22.75;76.19
51083;BME280;37131;42.694;23.350;2022-08-21T09:19:22;94851.50;;;23.14;72.40
51083;BME280;37131;42.694;23.350;2022-08-21T09:24:55;94838.81;;;23.37;71.09
51083;BME280;37131;42.694;23.350;2022-08-21T09:27:25;94846.13;;;23.48;69.39
51083;BME280;37131;42.694;23.350;2022-08-21T09:29:52;94837.19;;;23.53;69.62
51083;BME280;37131;42.694;23.350;2022-08-21T09:32:30;94838.38;;;23.82;68.57
51083;BME280;37131;42.694;23.350;2022-08-21T09:35:00;94835.81;;;23.38;71.59
51083;BME280;37131;42.694;23.350;2022-08-21T09:37:29;94841.63;;;23.49;70.59
51083;BME280;37131;42.694;23.350;2022-08-21T09:39:56;94795.34;;;23.24;68.73
51083;BME280;37131;42.694;23.350;2022-08-21T09:42:28;94843.34;;;23.01;69.31
51083;BME280;37131;42.694;23.350;2022-08-21T09:45:16;94826.13;;;23.34;71.27
51083;BME280;37131;42.694;23.350;2022-08-21T09:47:42;94842.25;;;23.46;71.25
51083;BME280;37131;42.694;23.350;2022-08-21T09:50:17;94821.75;;;23.29;68.03
51083;BME280;37131;42.694;23.350;2022-08-21T09:52:53;94837.28;;;23.18;66.93
51083;BME280;37131;42.694;23.350;2022-08-21T09:55:28;94836.31;;;23.32;66.78
51083;BME280;37131;42.694;23.350;2022-08-21T09:58:14;94825.97;;;23.39;67.83
51083;BME280;37131;42.694;23.350;2022-08-21T10:00:41;94833.78;;;23.09;69.86
51083;BME280;37131;42.694;23.350;2022-08-21T10:03:17;94819.09;;;23.29;72.05
51083;BME280;37131;42.694;23.350;2022-08-21T10:06:02;94819.16;;;23.68;69.92
51083;BME280;37131;42.694;23.350;2022-08-21T10:08:31;94812.25;;;23.75;70.87
51083;BME280;37131;42.694;23.350;2022-08-21T10:11:04;94811.91;;;23.94;64.63
51083;BME280;37131;42.694;23.350;2022-08-21T10:17:27;94815.84;;;23.88;66.68
51083;BME280;37131;42.694;23.350;2022-08-21T10:25:02;94799.44;;;24.16;67.31
51083;BME280;37131;42.694;23.350;2022-08-21T10:27:39;94799.13;;;24.39;65.78
51083;BME280;37131;42.694;23.350;2022-08-21T10:30:30;94795.22;;;24.45;67.04
51083;BME280;37131;42.694;23.350;2022-08-21T10:38:52;94791.56;;;24.20;64.07
51083;BME280;37131;42.694;23.350;2022-08-21T10:41:35;94791.34;;;24.33;64.95
51083;BME280;37131;42.694;23.350;2022-08-21T10:44:33;94791.63;;;24.11;69.01
51083;BME280;37131;42.694;23.350;2022-08-21T10:55:23;94780.53;;;24.30;64.19
51083;BME280;37131;42.694;23.350;2022-08-21T10:58:33;94770.72;;;24.73;64.61
51083;BME280;37131;42.694;23.350;2022-08-21T11:01:00;94762.84;;;24.97;64.70
51083;BME280;37131;42.694;23.350;2022-08-21T11:03:33;94764.38;;;24.56;62.58
51083;BME280;37131;42.694;23.350;2022-08-21T11:06:18;94755.75;;;24.59;62.27
51083;BME280;37131;42.694;23.350;2022-08-21T11:08:51;94762.72;;;24.73;66.88
51083;BME280;37131;42.694;23.350;2022-08-21T11:11:27;94748.13;;;24.49;64.04
51083;BME280;37131;42.694;23.350;2022-08-21T11:16:38;94740.19;;;25.03;63.90
51083;BME280;37131;42.694;23.350;2022-08-21T11:19:13;94743.69;;;24.62;64.05
51083;BME280;37131;42.694;23.350;2022-08-21T11:24:32;94731.91;;;25.17;60.76
51083;BME280;37131;42.694;23.350;2022-08-21T11:27:09;94723.94;;;24.63;62.77
51083;BME280;37131;42.694;23.350;2022-08-21T11:29:41;94742.25;;;24.98;66.75
51083;BME280;37131;42.694;23.350;2022-08-21T11:35:20;94737.59;;;24.95;60.81
51083;BME280;37131;42.694;23.350;2022-08-21T11:45:51;94729.88;;;24.81;62.01
51083;BME280;37131;42.694;23.350;2022-08-21T11:51:17;94723.41;;;25.03;62.57
51083;BME280;37131;42.694;23.350;2022-08-21T11:53:49;94729.63;;;24.52;61.58
51083;BME280;37131;42.694;23.350;2022-08-21T11:56:28;94727.88;;;24.78;61.51
51083;BME280;37131;42.694;23.350;2022-08-21T11:59:02;94714.06;;;24.76;60.86
51083;BME280;37131;42.694;23.350;2022-08-21T12:01:37;94730.50;;;24.99;60.23
51083;BME280;37131;42.694;23.350;2022-08-21T12:04:16;94726.75;;;24.37;60.21
51083;BME280;37131;42.694;23.350;2022-08-21T12:06:42;94724.75;;;24.76;58.18
51083;BME280;37131;42.694;23.350;2022-08-21T12:09:29;94727.06;;;24.77;59.17
51083;BME280;37131;42.694;23.350;2022-08-21T12:12:26;94707.47;;;24.61;58.21
51083;BME280;37131;42.694;23.350;2022-08-21T12:15:13;94701.22;;;24.35;59.42
51083;BME280;37131;42.694;23.350;2022-08-21T12:17:50;94699.91;;;24.21;60.78
51083;BME280;37131;42.694;23.350;2022-08-21T12:20:27;94709.72;;;24.71;59.23
51083;BME280;37131;42.694;23.350;2022-08-21T12:25:39;94715.66;;;24.77;58.69
51083;BME280;37131;42.694;23.350;2022-08-21T12:28:14;94726.16;;;24.94;59.62
51083;BME280;37131;42.694;23.350;2022-08-21T12:30:45;94722.97;;;25.01;59.40
51083;BME280;37131;42.694;23.350;2022-08-21T12:35:51;94721.84;;;25.02;56.91
51083;BME280;37131;42.694;23.350;2022-08-21T12:38:20;94723.56;;;25.19;57.85
51083;BME280;37131;42.694;23.350;2022-08-21T12:41:03;94706.00;;;25.18;58.53
51083;BME280;37131;42.694;23.350;2022-08-21T12:43:38;94713.00;;;25.22;57.61
51083;BME280;37131;42.694;23.350;2022-08-21T12:46:05;94712.28;;;25.34;58.22
51083;BME280;37131;42.694;23.350;2022-08-21T12:49:02;94712.88;;;24.73;58.12
51083;BME280;37131;42.694;23.350;2022-08-21T12:51:46;94705.16;;;24.50;61.94
51083;BME280;37131;42.694;23.350;2022-08-21T12:54:27;94711.41;;;24.76;61.34
51083;BME280;37131;42.694;23.350;2022-08-21T12:56:58;94712.72;;;24.69;59.72
51083;BME280;37131;42.694;23.350;2022-08-21T12:59:23;94712.06;;;24.73;59.83
51083;BME280;37131;42.694;23.350;2022-08-21T13:01:51;94711.66;;;24.20;62.49
51083;BME280;37131;42.694;23.350;2022-08-21T13:04:20;94709.66;;;24.16;63.07
51083;BME280;37131;42.694;23.350;2022-08-21T13:06:52;94706.81;;;24.43;61.81
51083;BME280;37131;42.694;23.350;2022-08-21T13:09:21;94704.41;;;24.71;59.86
51083;BME280;37131;42.694;23.350;2022-08-21T13:11:49;94692.34;;;24.86;60.58
51083;BME280;37131;42.694;23.350;2022-08-21T13:14:30;94697.00;;;24.89;60.98
51083;BME280;37131;42.694;23.350;2022-08-21T13:16:58;94699.13;;;24.83;58.34
51083;BME280;37131;42.694;23.350;2022-08-21T13:19:24;94699.72;;;25.01;58.54
51083;BME280;37131;42.694;23.350;2022-08-21T13:21:51;94698.59;;;24.90;59.98
51083;BME280;37131;42.694;23.350;2022-08-21T13:24:22;94696.50;;;24.96;58.98
51083;BME280;37131;42.694;23.350;2022-08-21T13:26:48;94678.94;;;24.95;58.42
51083;BME280;37131;42.694;23.350;2022-08-21T13:29:17;94690.91;;;24.89;61.51
51083;BME280;37131;42.694;23.350;2022-08-21T13:31:54;94681.25;;;24.96;59.71
51083;BME280;37131;42.694;23.350;2022-08-21T13:34:23;94667.06;;;25.04;59.14
51083;BME280;37131;42.694;23.350;2022-08-21T13:36:54;94663.66;;;24.71;60.09
51083;BME280;37131;42.694;23.350;2022-08-21T13:39:21;94657.34;;;24.54;61.45
51083;BME280;37131;42.694;23.350;2022-08-21T13:41:49;94668.09;;;24.24;62.54
51083;BME280;37131;42.694;23.350;2022-08-21T13:46:59;94678.75;;;24.45;62.05
51083;BME280;37131;42.694;23.350;2022-08-21T13:49:34;94678.66;;;24.54;63.85
51083;BME280;37131;42.694;23.350;2022-08-21T13:52:00;94683.66;;;24.56;63.02
51083;BME280;37131;42.694;23.350;2022-08-21T13:54:33;94675.66;;;24.56;62.57
51083;BME280;37131;42.694;23.350;2022-08-21T13:56:58;94665.16;;;24.59;62.48
51083;BME280;37131;42.694;23.350;2022-08-21T13:59:31;94667.72;;;25.01;61.62